createdAt,value
2017-03-14T00:00:49.011Z,0
2017-03-14T00:01:48.946Z,0
2017-03-14T00:02:49.381Z,0
2017-03-14T00:03:48.897Z,0
2017-03-14T00:04:48.891Z,0
2017-03-14T00:05:49.221Z,0
2017-03-14T00:06:48.815Z,0
2017-03-14T00:07:48.800Z,0
2017-03-14T00:08:49.265Z,0
2017-03-14T00:09:49.156Z,0
2017-03-14T00:10:49.103Z,0
2017-03-14T00:11:49.334Z,0
2017-03-14T00:12:49.075Z,0
2017-03-14T00:13:49.060Z,0
2017-03-14T00:14:49.003Z,0
2017-03-14T00:15:48.853Z,0
2017-03-14T00:16:48.971Z,0
2017-03-14T00:17:48.949Z,0
2017-03-14T00:18:48.918Z,0
2017-03-14T00:19:48.889Z,0
2017-03-14T00:20:48.874Z,0
2017-03-14T00:21:48.838Z,0
2017-03-14T00:22:48.825Z,0
2017-03-14T00:23:49.945Z,0
2017-03-14T00:24:49.725Z,0
2017-03-14T00:25:48.400Z,0
2017-03-14T00:26:48.775Z,0
2017-03-14T00:27:48.365Z,0
2017-03-14T00:28:48.679Z,0
2017-03-14T00:29:48.646Z,0
2017-03-14T00:30:48.629Z,0
2017-03-14T00:31:48.659Z,0
2017-03-14T00:32:48.582Z,0
2017-03-14T00:33:48.561Z,0
2017-03-14T00:34:48.548Z,0
2017-03-14T00:35:48.566Z,0
2017-03-14T00:36:48.497Z,0
2017-03-14T00:37:48.470Z,0
2017-03-14T00:38:48.445Z,0
2017-03-14T00:39:48.414Z,0
2017-03-14T00:40:48.405Z,0
2017-03-14T00:41:48.381Z,0
2017-03-14T00:42:48.349Z,0
2017-03-14T00:43:48.329Z,0
2017-03-14T00:44:47.912Z,0
2017-03-14T00:45:48.273Z,0
2017-03-14T00:46:48.269Z,0
2017-03-14T00:47:48.214Z,0
2017-03-14T00:48:48.203Z,0
2017-03-14T00:49:48.481Z,0
2017-03-14T00:50:48.198Z,0
2017-03-14T00:51:48.134Z,0
2017-03-14T00:52:48.170Z,0
2017-03-14T00:53:48.098Z,0
2017-03-14T00:54:48.114Z,0
2017-03-14T00:55:48.046Z,0
2017-03-14T00:56:48.007Z,0
2017-03-14T00:57:47.985Z,0
2017-03-14T00:58:48.021Z,0
2017-03-14T00:59:47.946Z,0
2017-03-14T01:00:47.972Z,0
2017-03-14T01:01:47.941Z,0
2017-03-14T01:02:47.880Z,0
2017-03-14T01:03:47.847Z,0
2017-03-14T01:04:48.427Z,0
2017-03-14T01:05:47.803Z,0
2017-03-14T01:06:47.772Z,0
2017-03-14T01:07:47.756Z,0
2017-03-14T01:08:47.729Z,0
2017-03-14T01:09:47.709Z,0
2017-03-14T01:10:47.683Z,0
2017-03-14T01:11:47.662Z,0
2017-03-14T01:12:47.252Z,0
2017-03-14T01:13:47.655Z,0
2017-03-14T01:14:47.606Z,0
2017-03-14T01:15:47.543Z,0
2017-03-14T01:16:47.545Z,0
2017-03-14T01:17:47.158Z,0
2017-03-14T01:18:47.110Z,0
2017-03-14T01:19:47.519Z,0
2017-03-14T01:20:47.456Z,0
2017-03-14T01:21:47.466Z,0
2017-03-14T01:22:47.396Z,0
2017-03-14T01:23:47.378Z,0
2017-03-14T01:24:46.962Z,0
2017-03-14T01:25:47.338Z,0
2017-03-14T01:26:47.313Z,0
2017-03-14T01:27:46.945Z,0
2017-03-14T01:28:47.260Z,0
2017-03-14T01:29:47.337Z,0
2017-03-14T01:30:47.212Z,0
2017-03-14T01:31:47.195Z,0
2017-03-14T01:32:47.208Z,0
2017-03-14T01:33:47.438Z,0
2017-03-14T01:34:46.775Z,0
2017-03-14T01:35:47.087Z,0
2017-03-14T01:36:47.072Z,0
2017-03-14T01:37:47.103Z,0
2017-03-14T01:38:47.018Z,0
2017-03-14T01:39:46.607Z,0
2017-03-14T01:40:47.016Z,0
2017-03-14T01:41:46.949Z,0
2017-03-14T01:42:46.923Z,0
2017-03-14T01:43:46.906Z,0
2017-03-14T01:44:46.881Z,0
2017-03-14T01:45:46.845Z,0
2017-03-14T01:46:46.826Z,0
2017-03-14T01:47:46.803Z,0
2017-03-14T01:48:47.028Z,0
2017-03-14T01:49:46.752Z,0
2017-03-14T01:50:46.732Z,0
2017-03-14T01:51:46.701Z,0
2017-03-14T01:52:46.693Z,0
2017-03-14T01:53:46.670Z,0
2017-03-14T01:54:46.253Z,0
2017-03-14T01:55:46.620Z,0
2017-03-14T01:56:46.588Z,0
2017-03-14T01:57:46.627Z,0
2017-03-14T01:58:46.542Z,0
2017-03-14T01:59:46.527Z,0
2017-03-14T02:00:46.506Z,0
2017-03-14T02:01:46.472Z,0
2017-03-14T02:02:46.441Z,0
2017-03-14T02:03:46.532Z,0
2017-03-14T02:04:46.403Z,0
2017-03-14T02:05:46.389Z,0
2017-03-14T02:06:46.380Z,0
2017-03-14T02:07:46.331Z,0
2017-03-14T02:08:46.313Z,0
2017-03-14T02:09:45.904Z,0
2017-03-14T02:10:45.869Z,0
2017-03-14T02:11:46.290Z,0
2017-03-14T02:12:46.277Z,0
2017-03-14T02:13:46.237Z,0
2017-03-14T02:14:46.171Z,0
2017-03-14T02:15:46.141Z,0
2017-03-14T02:16:46.115Z,0
2017-03-14T02:17:46.151Z,0
2017-03-14T02:18:46.069Z,0
2017-03-14T02:19:46.046Z,0
2017-03-14T02:20:46.871Z,0
2017-03-14T02:21:46.004Z,0
2017-03-14T02:22:45.983Z,0
2017-03-14T02:23:45.944Z,0
2017-03-14T02:24:45.928Z,0
2017-03-14T02:25:46.401Z,0
2017-03-14T02:26:45.873Z,0
2017-03-14T02:27:45.854Z,0
2017-03-14T02:28:45.833Z,0
2017-03-14T02:29:45.808Z,0
2017-03-14T02:30:45.782Z,0
2017-03-14T02:31:45.752Z,0
2017-03-14T02:32:47.229Z,0
2017-03-14T02:33:45.716Z,0
2017-03-14T02:34:45.306Z,0
2017-03-14T02:35:45.768Z,0
2017-03-14T02:36:45.640Z,0
2017-03-14T02:37:45.624Z,0
2017-03-14T02:38:45.589Z,0
2017-03-14T02:39:45.586Z,0
2017-03-14T02:40:45.543Z,0
2017-03-14T02:41:45.533Z,0
2017-03-14T02:42:45.494Z,0
2017-03-14T02:43:45.473Z,0
2017-03-14T02:44:45.462Z,0
2017-03-14T02:45:46.723Z,0
2017-03-14T02:46:45.598Z,0
2017-03-14T02:47:45.428Z,0
2017-03-14T02:48:45.355Z,0
2017-03-14T02:49:45.376Z,0
2017-03-14T02:50:45.305Z,0
2017-03-14T02:51:45.287Z,0
2017-03-14T02:52:44.878Z,0
2017-03-14T02:53:45.234Z,0
2017-03-14T02:54:45.222Z,0
2017-03-14T02:55:45.185Z,0
2017-03-14T02:56:45.159Z,0
2017-03-14T02:57:45.132Z,0
2017-03-14T02:58:44.727Z,0
2017-03-14T02:59:45.094Z,0
2017-03-14T03:00:44.680Z,0
2017-03-14T03:01:45.044Z,0
2017-03-14T03:02:45.012Z,0
2017-03-14T03:03:44.981Z,0
2017-03-14T03:04:44.196Z,0
2017-03-14T03:05:45.205Z,0
2017-03-14T03:06:44.918Z,0
2017-03-14T03:07:44.978Z,0
2017-03-14T03:08:44.881Z,0
2017-03-14T03:09:44.864Z,0
2017-03-14T03:10:44.824Z,0
2017-03-14T03:11:44.800Z,0
2017-03-14T03:12:45.372Z,0
2017-03-14T03:13:44.754Z,0
2017-03-14T03:14:44.723Z,0
2017-03-14T03:15:44.694Z,0
2017-03-14T03:16:44.706Z,0
2017-03-14T03:17:44.866Z,0
2017-03-14T03:18:44.628Z,0
2017-03-14T03:19:44.657Z,0
2017-03-14T03:20:44.630Z,0
2017-03-14T03:21:44.551Z,0
2017-03-14T03:22:44.542Z,0
2017-03-14T03:23:44.509Z,0
2017-03-14T03:24:44.524Z,0
2017-03-14T03:25:44.466Z,0
2017-03-14T03:26:44.043Z,0
2017-03-14T03:27:44.033Z,0
2017-03-14T03:28:44.445Z,0
2017-03-14T03:29:44.406Z,0
2017-03-14T03:30:43.574Z,0
2017-03-14T03:31:43.928Z,0
2017-03-14T03:32:44.290Z,0
2017-03-14T03:33:44.263Z,0
2017-03-14T03:34:44.245Z,0
2017-03-14T03:35:44.218Z,0
2017-03-14T03:36:44.196Z,0
2017-03-14T03:37:44.186Z,0
2017-03-14T03:38:44.156Z,0
2017-03-14T03:39:43.754Z,0
2017-03-14T03:40:44.098Z,0
2017-03-14T03:41:44.070Z,0
2017-03-14T03:42:45.002Z,0
2017-03-14T03:43:44.028Z,0
2017-03-14T03:44:44.005Z,0
2017-03-14T03:45:43.977Z,0
2017-03-14T03:46:43.944Z,0
2017-03-14T03:47:43.937Z,0
2017-03-14T03:48:43.531Z,0
2017-03-14T03:49:43.885Z,0
2017-03-14T03:50:43.852Z,0
2017-03-14T03:51:43.444Z,0
2017-03-14T03:52:43.802Z,0
2017-03-14T03:53:43.778Z,0
2017-03-14T03:54:43.756Z,0
2017-03-14T03:55:43.345Z,0
2017-03-14T03:56:43.712Z,0
2017-03-14T03:57:43.737Z,0
2017-03-14T03:58:43.682Z,0
2017-03-14T03:59:43.633Z,0
2017-03-14T04:00:43.597Z,0
2017-03-14T04:01:43.588Z,0
2017-03-14T04:02:43.173Z,0
2017-03-14T04:03:43.546Z,0
2017-03-14T04:04:43.511Z,0
2017-03-14T04:05:43.489Z,0
2017-03-14T04:06:43.714Z,0
2017-03-14T04:07:43.443Z,0
2017-03-14T04:08:43.409Z,0
2017-03-14T04:09:43.396Z,0
2017-03-14T04:10:43.372Z,0
2017-03-14T04:11:43.344Z,0
2017-03-14T04:12:43.319Z,0
2017-03-14T04:13:42.907Z,0
2017-03-14T04:14:43.268Z,0
2017-03-14T04:15:43.245Z,0
2017-03-14T04:16:43.238Z,0
2017-03-14T04:17:43.443Z,0
2017-03-14T04:18:43.188Z,0
2017-03-14T04:19:43.158Z,0
2017-03-14T04:20:43.139Z,0
2017-03-14T04:21:43.108Z,0
2017-03-14T04:22:43.076Z,0
2017-03-14T04:23:43.207Z,0
2017-03-14T04:24:43.077Z,0
2017-03-14T04:25:43.004Z,0
2017-03-14T04:26:42.980Z,0
2017-03-14T04:27:42.960Z,0
2017-03-14T04:28:42.939Z,0
2017-03-14T04:29:42.904Z,0
2017-03-14T04:30:42.889Z,0
2017-03-14T04:31:42.871Z,0
2017-03-14T04:32:42.842Z,0
2017-03-14T04:33:42.824Z,0
2017-03-14T04:34:42.784Z,0
2017-03-14T04:35:42.777Z,0
2017-03-14T04:36:42.739Z,0
2017-03-14T04:37:42.722Z,0
2017-03-14T04:38:42.691Z,0
2017-03-14T04:39:42.658Z,0
2017-03-14T04:40:42.707Z,0
2017-03-14T04:41:42.619Z,0
2017-03-14T04:42:42.652Z,0
2017-03-14T04:43:42.577Z,0
2017-03-14T04:44:42.176Z,0
2017-03-14T04:45:42.515Z,0
2017-03-14T04:46:42.491Z,0
2017-03-14T04:47:42.472Z,0
2017-03-14T04:48:42.443Z,0
2017-03-14T04:49:42.459Z,0
2017-03-14T04:50:42.398Z,0
2017-03-14T04:51:42.395Z,0
2017-03-14T04:52:42.356Z,0
2017-03-14T04:53:42.335Z,0
2017-03-14T04:54:42.310Z,0
2017-03-14T04:55:42.282Z,0
2017-03-14T04:56:42.257Z,0
2017-03-14T04:57:42.240Z,0
2017-03-14T04:58:42.250Z,0
2017-03-14T04:59:42.249Z,0
2017-03-14T05:00:41.790Z,0
2017-03-14T05:01:42.148Z,0
2017-03-14T05:02:42.111Z,0
2017-03-14T05:03:42.153Z,0
2017-03-14T05:04:42.071Z,0
2017-03-14T05:05:42.050Z,0
2017-03-14T05:06:41.635Z,0
2017-03-14T05:07:42.001Z,0
2017-03-14T05:08:42.829Z,0
2017-03-14T05:09:41.954Z,0
2017-03-14T05:10:41.940Z,0
2017-03-14T05:11:41.957Z,0
2017-03-14T05:12:41.879Z,0
2017-03-14T05:13:41.852Z,0
2017-03-14T05:14:41.827Z,0
2017-03-14T05:15:41.808Z,0
2017-03-14T05:16:41.785Z,0
2017-03-14T05:17:41.762Z,0
2017-03-14T05:18:41.731Z,0
2017-03-14T05:19:41.317Z,0
2017-03-14T05:20:41.673Z,0
2017-03-14T05:21:41.751Z,0
2017-03-14T05:22:41.252Z,0
2017-03-14T05:23:41.228Z,0
2017-03-14T05:24:41.593Z,0
2017-03-14T05:25:41.560Z,0
2017-03-14T05:26:41.535Z,0
2017-03-14T05:27:41.524Z,0
2017-03-14T05:28:41.549Z,0
2017-03-14T05:29:41.473Z,0
2017-03-14T05:30:41.449Z,0
2017-03-14T05:31:41.462Z,0
2017-03-14T05:32:41.403Z,0
2017-03-14T05:33:41.373Z,0
2017-03-14T05:34:41.383Z,0
2017-03-14T05:35:41.411Z,0
2017-03-14T05:36:41.292Z,0
2017-03-14T05:37:41.262Z,0
2017-03-14T05:38:41.299Z,0
2017-03-14T05:39:41.215Z,0
2017-03-14T05:40:41.201Z,0
2017-03-14T05:41:41.224Z,0
2017-03-14T05:42:41.366Z,0
2017-03-14T05:43:41.133Z,0
2017-03-14T05:44:41.161Z,0
2017-03-14T05:45:41.104Z,0
2017-03-14T05:46:41.079Z,5
2017-03-14T05:47:41.061Z,5
2017-03-14T05:48:41.088Z,5
2017-03-14T05:49:40.981Z,5
2017-03-14T05:50:40.958Z,5
2017-03-14T05:51:41.002Z,5
2017-03-14T05:52:40.903Z,5
2017-03-14T05:53:40.885Z,5
2017-03-14T05:54:40.857Z,5
2017-03-14T05:55:40.842Z,10
2017-03-14T05:56:40.813Z,10
2017-03-14T05:57:40.843Z,10
2017-03-14T05:58:40.763Z,10
2017-03-14T05:59:40.755Z,10
2017-03-14T06:00:40.723Z,10
2017-03-14T06:01:40.696Z,10
2017-03-14T06:02:40.707Z,15
2017-03-14T06:03:40.712Z,15
2017-03-14T06:04:40.666Z,15
2017-03-14T06:05:40.613Z,15
2017-03-14T06:06:40.572Z,20
2017-03-14T06:07:40.552Z,20
2017-03-14T06:08:40.536Z,20
2017-03-14T06:09:40.508Z,20
2017-03-14T06:10:40.476Z,25
2017-03-14T06:11:40.446Z,25
2017-03-14T06:12:40.493Z,15
2017-03-14T06:13:40.430Z,25
2017-03-14T06:14:40.439Z,25
2017-03-14T06:15:40.353Z,25
2017-03-14T06:16:40.344Z,25
2017-03-14T06:17:40.311Z,25
2017-03-14T06:18:40.336Z,25
2017-03-14T06:19:40.267Z,25
2017-03-14T06:20:40.236Z,25
2017-03-14T06:21:40.362Z,25
2017-03-14T06:22:40.237Z,30
2017-03-14T06:23:39.775Z,30
2017-03-14T06:24:40.134Z,30
2017-03-14T06:25:40.127Z,35
2017-03-14T06:26:40.095Z,35
2017-03-14T06:27:40.089Z,35
2017-03-14T06:28:40.035Z,35
2017-03-14T06:29:40.022Z,35
2017-03-14T06:30:39.997Z,40
2017-03-14T06:31:39.984Z,40
2017-03-14T06:32:39.948Z,40
2017-03-14T06:33:39.989Z,45
2017-03-14T06:34:39.904Z,45
2017-03-14T06:35:39.877Z,45
2017-03-14T06:36:39.849Z,45
2017-03-14T06:37:39.886Z,50
2017-03-14T06:38:39.819Z,55
2017-03-14T06:39:39.789Z,55
2017-03-14T06:40:39.755Z,60
2017-03-14T06:41:39.759Z,65
2017-03-14T06:42:39.962Z,70
2017-03-14T06:43:39.717Z,75
2017-03-14T06:44:39.671Z,75
2017-03-14T06:45:39.642Z,85
2017-03-14T06:46:39.614Z,90
2017-03-14T06:47:39.648Z,95
2017-03-14T06:48:39.573Z,100
2017-03-14T06:49:39.550Z,105
2017-03-14T06:50:39.527Z,105
2017-03-14T06:51:39.751Z,110
2017-03-14T06:52:39.480Z,110
2017-03-14T06:53:39.515Z,115
2017-03-14T06:54:39.436Z,120
2017-03-14T06:55:39.411Z,120
2017-03-14T06:56:39.375Z,125
2017-03-14T06:57:39.358Z,130
2017-03-14T06:58:39.321Z,135
2017-03-14T06:59:38.924Z,145
2017-03-14T07:00:39.284Z,155
2017-03-14T07:01:39.269Z,165
2017-03-14T07:02:39.239Z,185
2017-03-14T07:03:39.213Z,205
2017-03-14T07:04:39.191Z,190
2017-03-14T07:05:39.174Z,205
2017-03-14T07:06:39.149Z,220
2017-03-14T07:07:39.124Z,205
2017-03-14T07:08:39.100Z,200
2017-03-14T07:09:39.071Z,205
2017-03-14T07:10:39.049Z,200
2017-03-14T07:11:39.025Z,205
2017-03-14T07:12:39.009Z,205
2017-03-14T07:13:38.981Z,200
2017-03-14T07:14:39.655Z,205
2017-03-14T07:15:38.934Z,215
2017-03-14T07:16:38.918Z,225
2017-03-14T07:17:38.884Z,240
2017-03-14T07:18:38.873Z,215
2017-03-14T07:19:38.871Z,205
2017-03-14T07:20:38.839Z,210
2017-03-14T07:21:38.795Z,225
2017-03-14T07:22:38.769Z,265
2017-03-14T07:23:38.741Z,265
2017-03-14T07:24:38.973Z,290
2017-03-14T07:25:38.712Z,310
2017-03-14T07:26:38.938Z,300
2017-03-14T07:27:38.719Z,360
2017-03-14T07:28:38.260Z,345
2017-03-14T07:29:38.235Z,400
2017-03-14T07:30:38.636Z,400
2017-03-14T07:31:38.577Z,405
2017-03-14T07:32:38.605Z,430
2017-03-14T07:33:38.534Z,470
2017-03-14T07:34:39.361Z,555
2017-03-14T07:35:38.494Z,520
2017-03-14T07:36:38.464Z,475
2017-03-14T07:37:38.448Z,460
2017-03-14T07:38:38.423Z,300
2017-03-14T07:39:38.410Z,260
2017-03-14T07:40:38.398Z,240
2017-03-14T07:41:38.361Z,220
2017-03-14T07:42:38.339Z,210
2017-03-14T07:43:38.342Z,195
2017-03-14T07:44:38.313Z,190
2017-03-14T07:45:38.282Z,190
2017-03-14T07:46:38.268Z,180
2017-03-14T07:47:38.245Z,170
2017-03-14T07:48:38.265Z,170
2017-03-14T07:49:38.199Z,165
2017-03-14T07:50:38.175Z,165
2017-03-14T07:51:38.214Z,165
2017-03-14T07:52:38.147Z,165
2017-03-14T07:53:37.784Z,170
2017-03-14T07:54:38.101Z,170
2017-03-14T07:55:38.076Z,175
2017-03-14T07:56:38.067Z,165
2017-03-14T07:57:37.263Z,160
2017-03-14T07:58:37.626Z,160
2017-03-14T07:59:37.993Z,160
2017-03-14T08:00:37.966Z,160
2017-03-14T08:01:37.939Z,160
2017-03-14T08:02:37.933Z,155
2017-03-14T08:03:37.954Z,160
2017-03-14T08:04:37.886Z,160
2017-03-14T08:05:37.851Z,160
2017-03-14T08:06:37.896Z,165
2017-03-14T08:07:37.859Z,165
2017-03-14T08:08:37.825Z,170
2017-03-14T08:09:37.395Z,180
2017-03-14T08:10:36.977Z,190
2017-03-14T08:11:37.352Z,195
2017-03-14T08:12:37.713Z,205
2017-03-14T08:13:41.310Z,205
2017-03-14T08:14:51.806Z,190
2017-03-14T08:15:37.693Z,180
2017-03-14T08:16:38.854Z,185
2017-03-14T08:17:37.591Z,190
2017-03-14T08:18:37.578Z,200
2017-03-14T08:19:37.548Z,205
2017-03-14T08:20:37.529Z,205
2017-03-14T08:21:37.504Z,220
2017-03-14T08:22:37.486Z,230
2017-03-14T08:23:37.469Z,235
2017-03-14T08:24:37.440Z,225
2017-03-14T08:25:37.429Z,220
2017-03-14T08:26:37.406Z,225
2017-03-14T08:27:37.395Z,240
2017-03-14T08:28:37.353Z,250
2017-03-14T08:29:37.543Z,260
2017-03-14T08:30:37.356Z,255
2017-03-14T08:31:37.279Z,230
2017-03-14T08:32:37.264Z,215
2017-03-14T08:33:37.248Z,220
2017-03-14T08:34:37.228Z,215
2017-03-14T08:35:37.201Z,205
2017-03-14T08:36:37.176Z,215
2017-03-14T08:37:37.198Z,220
2017-03-14T08:38:37.131Z,210
2017-03-14T08:39:37.119Z,210
2017-03-14T08:40:37.125Z,215
2017-03-14T08:41:37.064Z,220
2017-03-14T08:42:37.046Z,215
2017-03-14T08:43:37.030Z,210
2017-03-14T08:44:36.621Z,205
2017-03-14T08:45:37.039Z,200
2017-03-14T08:46:36.619Z,200
2017-03-14T08:47:36.930Z,200
2017-03-14T08:48:36.906Z,205
2017-03-14T08:49:36.889Z,195
2017-03-14T08:50:36.858Z,185
2017-03-14T08:51:36.852Z,180
2017-03-14T08:52:36.445Z,180
2017-03-14T08:53:36.798Z,190
2017-03-14T08:54:36.776Z,195
2017-03-14T08:55:36.764Z,195
2017-03-14T08:56:36.739Z,200
2017-03-14T08:57:36.710Z,205
2017-03-14T08:58:36.307Z,215
2017-03-14T08:59:36.301Z,225
2017-03-14T09:00:36.652Z,230
2017-03-14T09:01:36.621Z,230
2017-03-14T09:02:36.600Z,235
2017-03-14T09:03:36.577Z,235
2017-03-14T09:04:36.559Z,235
2017-03-14T09:05:36.534Z,245
2017-03-14T09:06:36.507Z,235
2017-03-14T09:07:36.520Z,235
2017-03-14T09:08:36.467Z,240
2017-03-14T09:09:36.443Z,230
2017-03-14T09:10:36.013Z,225
2017-03-14T09:11:36.456Z,220
2017-03-14T09:12:36.392Z,225
2017-03-14T09:13:36.390Z,225
2017-03-14T09:14:36.390Z,235
2017-03-14T09:15:36.322Z,235
2017-03-14T09:16:35.913Z,235
2017-03-14T09:17:36.275Z,240
2017-03-14T09:18:35.876Z,250
2017-03-14T09:19:36.486Z,255
2017-03-14T09:20:35.813Z,265
2017-03-14T09:21:36.183Z,265
2017-03-14T09:22:36.170Z,260
2017-03-14T09:23:37.143Z,270
2017-03-14T09:24:36.120Z,280
2017-03-14T09:25:36.106Z,295
2017-03-14T09:26:36.083Z,300
2017-03-14T09:27:36.058Z,310
2017-03-14T09:28:36.025Z,320
2017-03-14T09:29:35.643Z,330
2017-03-14T09:30:35.991Z,345
2017-03-14T09:31:35.591Z,370
2017-03-14T09:32:35.945Z,425
2017-03-14T09:33:35.929Z,440
2017-03-14T09:34:35.139Z,460
2017-03-14T09:35:35.909Z,485
2017-03-14T09:36:35.863Z,615
2017-03-14T09:37:35.846Z,550
2017-03-14T09:38:35.831Z,810
2017-03-14T09:39:35.826Z,590
2017-03-14T09:40:37.123Z,580
2017-03-14T09:41:35.367Z,660
2017-03-14T09:42:35.779Z,510
2017-03-14T09:43:35.715Z,1090
2017-03-14T09:44:35.693Z,1015
2017-03-14T09:45:35.723Z,1080
2017-03-14T09:46:35.652Z,735
2017-03-14T09:47:35.653Z,635
2017-03-14T09:48:35.642Z,965
2017-03-14T09:49:35.606Z,905
2017-03-14T09:50:35.191Z,760
2017-03-14T09:51:35.571Z,760
2017-03-14T09:52:35.537Z,1040
2017-03-14T09:53:35.530Z,1035
2017-03-14T09:54:35.513Z,990
2017-03-14T09:55:35.496Z,1010
2017-03-14T09:56:35.485Z,985
2017-03-14T09:57:35.455Z,995
2017-03-14T09:58:35.060Z,1030
2017-03-14T09:59:35.425Z,1005
2017-03-14T10:00:35.456Z,995
2017-03-14T10:01:35.393Z,995
2017-03-14T10:02:35.430Z,1010
2017-03-14T10:03:35.365Z,1010
2017-03-14T10:04:34.956Z,720
2017-03-14T10:05:35.384Z,395
2017-03-14T10:06:34.918Z,345
2017-03-14T10:07:35.695Z,340
2017-03-14T10:08:35.274Z,335
2017-03-14T10:09:35.261Z,330
2017-03-14T10:10:35.256Z,330
2017-03-14T10:11:35.238Z,330
2017-03-14T10:12:35.262Z,325
2017-03-14T10:13:36.104Z,325
2017-03-14T10:14:35.590Z,320
2017-03-14T10:15:35.174Z,320
2017-03-14T10:16:35.157Z,320
2017-03-14T10:17:35.150Z,325
2017-03-14T10:18:35.117Z,325
2017-03-14T10:19:35.097Z,325
2017-03-14T10:20:35.119Z,330
2017-03-14T10:21:35.075Z,330
2017-03-14T10:22:34.716Z,305
2017-03-14T10:23:35.106Z,320
2017-03-14T10:24:34.667Z,325
2017-03-14T10:25:34.649Z,325
2017-03-14T10:26:34.644Z,340
2017-03-14T10:27:34.619Z,345
2017-03-14T10:28:34.288Z,330
2017-03-14T10:29:34.922Z,340
2017-03-14T10:30:34.306Z,340
2017-03-14T10:31:34.548Z,340
2017-03-14T10:32:33.910Z,340
2017-03-14T10:33:34.230Z,335
2017-03-14T10:34:34.517Z,350
2017-03-14T10:35:34.468Z,340
2017-03-14T10:36:34.467Z,375
2017-03-14T10:37:34.418Z,360
2017-03-14T10:38:34.402Z,345
2017-03-14T10:39:34.380Z,340
2017-03-14T10:40:34.365Z,340
2017-03-14T10:41:34.022Z,355
2017-03-14T10:42:34.321Z,360
2017-03-14T10:43:34.309Z,385
2017-03-14T10:44:34.324Z,400
2017-03-14T10:45:34.269Z,385
2017-03-14T10:46:34.253Z,370
2017-03-14T10:47:34.162Z,350
2017-03-14T10:48:33.900Z,330
2017-03-14T10:49:34.189Z,310
2017-03-14T10:50:34.171Z,310
2017-03-14T10:51:34.144Z,300
2017-03-14T10:52:33.822Z,295
2017-03-14T10:53:34.167Z,285
2017-03-14T10:54:34.088Z,295
2017-03-14T10:55:34.061Z,295
2017-03-14T10:56:34.048Z,290
2017-03-14T10:57:33.739Z,290
2017-03-14T10:58:34.037Z,285
2017-03-14T10:59:34.008Z,280
2017-03-14T11:00:33.963Z,275
2017-03-14T11:01:33.945Z,280
2017-03-14T11:02:33.923Z,280
2017-03-14T11:03:33.901Z,275
2017-03-14T11:04:33.275Z,275
2017-03-14T11:05:33.866Z,280
2017-03-14T11:06:33.651Z,280
2017-03-14T11:07:33.818Z,275
2017-03-14T11:08:33.801Z,280
2017-03-14T11:09:33.790Z,280
2017-03-14T11:10:33.768Z,280
2017-03-14T11:11:33.749Z,275
2017-03-14T11:12:33.731Z,280
2017-03-14T11:13:33.413Z,285
2017-03-14T11:14:33.694Z,290
2017-03-14T11:15:33.673Z,290
2017-03-14T11:16:33.655Z,295
2017-03-14T11:17:33.616Z,290
2017-03-14T11:18:33.660Z,285
2017-03-14T11:19:33.578Z,285
2017-03-14T11:20:33.559Z,280
2017-03-14T11:21:33.533Z,280
2017-03-14T11:22:33.641Z,275
2017-03-14T11:23:33.515Z,270
2017-03-14T11:24:33.484Z,275
2017-03-14T11:25:33.502Z,270
2017-03-14T11:26:33.438Z,265
2017-03-14T11:27:33.481Z,265
2017-03-14T11:28:32.800Z,270
2017-03-14T11:29:33.387Z,280
2017-03-14T11:30:33.061Z,290
2017-03-14T11:31:33.351Z,290
2017-03-14T11:32:33.319Z,320
2017-03-14T11:33:33.309Z,350
2017-03-14T11:34:33.274Z,335
2017-03-14T11:35:33.264Z,325
2017-03-14T11:36:33.382Z,350
2017-03-14T11:37:33.219Z,380
2017-03-14T11:38:33.199Z,375
2017-03-14T11:39:33.181Z,400
2017-03-14T11:40:32.873Z,375
2017-03-14T11:41:32.851Z,360
2017-03-14T11:42:32.813Z,375
2017-03-14T11:43:32.284Z,435
2017-03-14T11:44:32.782Z,465
2017-03-14T11:45:33.081Z,455
2017-03-14T11:46:33.068Z,425
2017-03-14T11:47:33.011Z,435
2017-03-14T11:48:33.006Z,490
2017-03-14T11:49:32.980Z,480
2017-03-14T11:50:32.960Z,500
2017-03-14T11:51:32.348Z,505
2017-03-14T11:52:32.979Z,505
2017-03-14T11:53:32.915Z,505
2017-03-14T11:54:32.882Z,505
2017-03-14T11:55:32.875Z,490
2017-03-14T11:56:32.854Z,495
2017-03-14T11:57:32.530Z,480
2017-03-14T11:58:32.811Z,480
2017-03-14T11:59:32.792Z,455
2017-03-14T12:00:32.781Z,475
2017-03-14T12:01:32.756Z,465
2017-03-14T12:02:32.754Z,475
2017-03-14T12:03:32.731Z,450
2017-03-14T12:04:32.712Z,440
2017-03-14T12:05:32.693Z,425
2017-03-14T12:06:32.777Z,390
2017-03-14T12:07:32.642Z,385
2017-03-14T12:08:32.334Z,410
2017-03-14T12:09:32.305Z,425
2017-03-14T12:10:32.604Z,405
2017-03-14T12:11:32.568Z,410
2017-03-14T12:12:32.343Z,445
2017-03-14T12:13:33.643Z,445
2017-03-14T12:14:32.526Z,455
2017-03-14T12:15:32.194Z,445
2017-03-14T12:16:32.539Z,430
2017-03-14T12:17:32.464Z,420
2017-03-14T12:18:32.443Z,435
2017-03-14T12:19:32.421Z,435
2017-03-14T12:20:32.115Z,430
2017-03-14T12:21:32.397Z,440
2017-03-14T12:22:32.381Z,435
2017-03-14T12:23:32.361Z,445
2017-03-14T12:24:32.404Z,450
2017-03-14T12:25:32.302Z,445
2017-03-14T12:26:33.162Z,440
2017-03-14T12:27:32.276Z,435
2017-03-14T12:28:32.252Z,435
2017-03-14T12:29:32.249Z,445
2017-03-14T12:30:33.423Z,455
2017-03-14T12:31:32.219Z,465
2017-03-14T12:32:32.174Z,465
2017-03-14T12:33:32.171Z,475
2017-03-14T12:34:32.143Z,475
2017-03-14T12:35:32.132Z,480
2017-03-14T12:36:31.807Z,485
2017-03-14T12:37:32.115Z,490
2017-03-14T12:38:32.084Z,460
2017-03-14T12:39:32.051Z,445
2017-03-14T12:40:32.031Z,430
2017-03-14T12:41:32.024Z,415
2017-03-14T12:42:32.002Z,395
2017-03-14T12:43:32.278Z,380
2017-03-14T12:44:31.987Z,360
2017-03-14T12:45:32.942Z,340
2017-03-14T12:46:31.919Z,325
2017-03-14T12:47:31.957Z,305
2017-03-14T12:48:31.890Z,305
2017-03-14T12:49:31.922Z,300
2017-03-14T12:50:31.907Z,295
2017-03-14T12:51:32.083Z,290
2017-03-14T12:52:31.824Z,290
2017-03-14T12:53:31.844Z,310
2017-03-14T12:54:31.497Z,320
2017-03-14T12:55:32.250Z,325
2017-03-14T12:56:33.799Z,340
2017-03-14T12:57:31.726Z,330
2017-03-14T12:58:32.096Z,340
2017-03-14T12:59:31.689Z,325
2017-03-14T13:00:31.658Z,310
2017-03-14T13:01:31.648Z,325
2017-03-14T13:02:31.943Z,325
2017-03-14T13:03:32.108Z,325
2017-03-14T13:04:31.582Z,310
2017-03-14T13:05:31.577Z,295
2017-03-14T13:06:31.589Z,290
2017-03-14T13:07:31.527Z,295
2017-03-14T13:08:31.510Z,290
2017-03-14T13:09:31.483Z,290
2017-03-14T13:10:31.580Z,285
2017-03-14T13:11:31.468Z,295
2017-03-14T13:12:31.485Z,290
2017-03-14T13:13:31.436Z,275
2017-03-14T13:14:31.398Z,265
2017-03-14T13:15:31.435Z,255
2017-03-14T13:16:31.358Z,260
2017-03-14T13:17:31.354Z,255
2017-03-14T13:18:31.319Z,235
2017-03-14T13:19:30.999Z,230
2017-03-14T13:20:31.293Z,235
2017-03-14T13:21:31.268Z,235
2017-03-14T13:22:31.243Z,235
2017-03-14T13:23:31.214Z,245
2017-03-14T13:24:31.213Z,245
2017-03-14T13:25:31.183Z,240
2017-03-14T13:26:31.168Z,235
2017-03-14T13:27:30.840Z,225
2017-03-14T13:28:31.130Z,245
2017-03-14T13:29:32.204Z,265
2017-03-14T13:30:30.786Z,250
2017-03-14T13:31:31.089Z,255
2017-03-14T13:32:31.047Z,265
2017-03-14T13:33:31.080Z,255
2017-03-14T13:34:31.032Z,235
2017-03-14T13:35:30.987Z,220
2017-03-14T13:36:30.662Z,225
2017-03-14T13:37:30.955Z,240
2017-03-14T13:38:30.940Z,235
2017-03-14T13:39:30.966Z,220
2017-03-14T13:40:30.915Z,210
2017-03-14T13:41:30.879Z,210
2017-03-14T13:42:30.859Z,205
2017-03-14T13:43:30.899Z,210
2017-03-14T13:44:30.860Z,215
2017-03-14T13:45:30.795Z,225
2017-03-14T13:46:30.767Z,230
2017-03-14T13:47:30.823Z,235
2017-03-14T13:48:30.730Z,255
2017-03-14T13:49:30.722Z,255
2017-03-14T13:50:30.709Z,250
2017-03-14T13:51:30.669Z,240
2017-03-14T13:52:30.663Z,245
2017-03-14T13:53:30.691Z,245
2017-03-14T13:54:30.321Z,245
2017-03-14T13:55:30.596Z,240
2017-03-14T13:56:30.579Z,255
2017-03-14T13:57:30.633Z,250
2017-03-14T13:58:30.231Z,235
2017-03-14T13:59:30.222Z,220
2017-03-14T14:00:30.498Z,220
2017-03-14T14:01:30.485Z,225
2017-03-14T14:02:30.551Z,255
2017-03-14T14:03:30.435Z,260
2017-03-14T14:04:30.438Z,265
2017-03-14T14:05:30.416Z,295
2017-03-14T14:06:30.387Z,305
2017-03-14T14:07:30.365Z,295
2017-03-14T14:08:44.955Z,305
2017-03-14T14:09:30.028Z,315
2017-03-14T14:10:30.371Z,320
2017-03-14T14:11:30.290Z,315
2017-03-14T14:12:30.261Z,310